createdAt,value
2024-01-11T06:34:06.404Z,20.2
2024-01-11T06:35:06.953Z,20.2
2024-01-11T06:36:07.371Z,20.2
2024-01-11T06:37:07.834Z,20.6
2024-01-11T06:38:08.315Z,20.6
2024-01-11T06:39:08.784Z,20.6
2024-01-11T06:40:09.312Z,21
2024-01-11T06:41:09.809Z,21
2024-01-11T06:42:10.267Z,21
2024-01-11T06:43:10.730Z,21
2024-01-11T06:44:11.239Z,21
2024-01-11T06:45:11.244Z,21.4
2024-01-11T06:46:11.263Z,21.4
2024-01-11T06:47:11.763Z,21.4
2024-01-11T06:48:12.349Z,21.4
2024-01-11T06:49:13.012Z,21.4
2024-01-11T06:50:13.257Z,21.4
2024-01-11T06:51:13.213Z,21.4
2024-01-11T06:52:13.695Z,21.4
2024-01-11T06:53:14.246Z,21.4
2024-01-11T06:54:14.200Z,21.8
2024-01-11T06:55:14.692Z,21.8
2024-01-11T06:56:15.187Z,21.8
2024-01-11T06:57:15.684Z,21.8
2024-01-11T06:58:15.796Z,21.8
2024-01-11T06:59:15.823Z,21.8
2024-01-11T07:00:15.792Z,21.8
2024-01-11T07:01:15.937Z,21.8
2024-01-11T07:02:15.948Z,21.8
2024-01-11T07:03:15.937Z,21.8
2024-01-11T07:04:16.483Z,21.8
2024-01-11T07:05:16.989Z,21.8
2024-01-11T07:06:17.456Z,21.8
2024-01-11T07:07:17.868Z,21.8
2024-01-11T07:08:17.912Z,21.8
2024-01-11T07:09:18.388Z,21.8
2024-01-11T07:10:18.419Z,21.8
2024-01-11T07:11:18.916Z,21.8
2024-01-11T07:12:19.346Z,21.8
2024-01-11T07:13:19.827Z,21.8
2024-01-11T07:14:20.316Z,21.8
2024-01-11T07:15:20.785Z,21.8
2024-01-11T07:16:21.308Z,21.8
2024-01-11T07:17:21.314Z,21.8
2024-01-11T07:18:21.795Z,21.8
2024-01-11T07:19:22.294Z,21.8
2024-01-11T07:20:22.758Z,21.8
2024-01-11T07:21:22.753Z,22.2
2024-01-11T07:22:23.273Z,22.2
2024-01-11T07:23:23.762Z,22.2
2024-01-11T07:24:24.229Z,22.2
2024-01-11T07:25:24.708Z,22.2
2024-01-11T07:26:25.232Z,22.2
2024-01-11T07:27:25.689Z,22.2
2024-01-11T07:28:26.170Z,22.2
2024-01-11T07:29:26.708Z,22.2
2024-01-11T07:30:27.183Z,22.2
2024-01-11T07:31:27.669Z,22.2
2024-01-11T07:32:28.212Z,22.2
2024-01-11T07:33:28.858Z,22.2
2024-01-11T07:34:29.317Z,22.2
2024-01-11T07:35:29.592Z,22.2
2024-01-11T07:36:30.071Z,22
2024-01-11T07:37:30.580Z,21.8
2024-01-11T07:38:31.107Z,21.8
2024-01-11T07:39:31.570Z,21.8
2024-01-11T07:40:34.487Z,22.1
2024-01-11T07:41:32.624Z,22.2
2024-01-11T07:42:33.028Z,22.2
2024-01-11T07:43:38.654Z,22.2
2024-01-11T07:44:34.023Z,22.2
2024-01-11T07:45:34.448Z,22.2
2024-01-11T07:46:36.574Z,22.2
2024-01-11T07:47:35.474Z,22.2
2024-01-11T07:48:35.974Z,22.2
2024-01-11T07:49:36.426Z,22.2
2024-01-11T07:50:36.915Z,22.2
2024-01-11T07:51:37.361Z,22.2
2024-01-11T07:52:37.840Z,22.2
2024-01-11T07:53:38.432Z,22.2
2024-01-11T07:54:38.854Z,22.2
2024-01-11T07:55:39.311Z,22.2
2024-01-11T07:56:39.813Z,22.2
2024-01-11T07:57:40.290Z,22.2
2024-01-11T07:58:40.796Z,22.2
2024-01-11T07:59:41.341Z,22.2
2024-01-11T08:00:41.799Z,22.2
2024-01-11T08:01:42.284Z,22.2
2024-01-11T08:02:42.963Z,22.2
2024-01-11T08:03:43.291Z,22.2
2024-01-11T08:04:45.193Z,22.6
2024-01-11T08:05:44.477Z,22.5
2024-01-11T08:06:44.491Z,22.2
2024-01-11T08:07:44.442Z,22.2
2024-01-11T08:08:44.705Z,22.2
2024-01-11T08:09:44.847Z,22.2
2024-01-11T08:10:45.465Z,22.2
2024-01-11T08:11:48.819Z,22.2
2024-01-11T08:12:48.053Z,22.2
2024-01-11T08:13:45.536Z,22.2
2024-01-11T08:14:46.052Z,22.2
2024-01-11T08:15:46.642Z,22.2
2024-01-11T08:16:46.989Z,22.6
2024-01-11T08:17:48.530Z,22.6
2024-01-11T08:18:47.661Z,22.6
2024-01-11T08:19:47.562Z,22.6
2024-01-11T08:20:47.562Z,22.6
2024-01-11T08:21:48.024Z,22.6
2024-01-11T08:22:48.549Z,22.6
2024-01-11T08:23:49.105Z,22.6
2024-01-11T08:24:49.517Z,22.6
2024-01-11T08:25:50.044Z,22.6
2024-01-11T08:26:50.514Z,22.6
2024-01-11T08:27:51.032Z,22.6
2024-01-11T08:28:51.515Z,22.6
2024-01-11T08:29:52.078Z,22.2
2024-01-11T08:30:52.052Z,22.5
2024-01-11T08:31:52.034Z,22.6
2024-01-11T08:32:52.611Z,22.6
2024-01-11T08:33:52.737Z,22.6
2024-01-11T08:34:53.201Z,22.6
2024-01-11T08:35:53.595Z,22.6
2024-01-11T08:36:53.573Z,22.6
2024-01-11T08:37:53.589Z,22.6
2024-01-11T08:38:53.575Z,22.6
2024-01-11T08:39:54.074Z,22.6
2024-01-11T08:40:54.048Z,22.6
2024-01-11T08:41:54.523Z,22.6
2024-01-11T08:42:55.035Z,22.6
2024-01-11T08:43:55.511Z,22.6
2024-01-11T08:44:56.584Z,22.6
2024-01-11T08:45:56.485Z,22.6
2024-01-11T08:46:56.952Z,22.6
2024-01-11T08:47:57.542Z,22.6
2024-01-11T08:48:58.061Z,22.6
2024-01-11T08:49:58.420Z,22.6
2024-01-11T08:50:58.907Z,22.6
2024-01-11T08:51:59.329Z,22.6
2024-01-11T08:52:59.823Z,22.6
2024-01-11T08:54:00.286Z,22.6
2024-01-11T08:55:00.765Z,22.6
2024-01-11T08:56:01.288Z,22.6
2024-01-11T08:57:01.766Z,22.6
2024-01-11T08:58:02.211Z,22.6
2024-01-11T08:59:02.695Z,22.6
2024-01-11T09:00:03.175Z,22.2
2024-01-11T09:01:03.721Z,22.2
2024-01-11T09:02:09.748Z,22.2
2024-01-11T09:03:04.156Z,22.2
2024-01-11T09:04:04.626Z,22.2
2024-01-11T09:05:05.142Z,22.2
2024-01-11T09:06:08.466Z,22.2
2024-01-11T09:07:05.836Z,22.2
2024-01-11T09:08:06.358Z,22.2
2024-01-11T09:09:06.829Z,22.2
2024-01-11T09:10:07.269Z,22.2
2024-01-11T09:11:07.815Z,22.2
2024-01-11T09:12:07.735Z,22.2
2024-01-11T09:13:08.430Z,22.2
2024-01-11T09:14:08.772Z,22.3
2024-01-11T09:15:09.284Z,22.6
2024-01-11T09:16:09.249Z,22.6
2024-01-11T09:17:09.833Z,22.6
2024-01-11T09:18:09.916Z,22.6
2024-01-11T09:19:10.286Z,22.6
2024-01-11T09:20:10.395Z,22.6
2024-01-11T09:21:10.724Z,22.6
2024-01-11T09:22:10.696Z,22.6
2024-01-11T09:23:11.212Z,22.6
2024-01-11T09:24:11.198Z,22.6
2024-01-11T09:25:11.720Z,22.6
2024-01-11T09:26:11.734Z,22.6
2024-01-11T09:27:12.201Z,22.6
2024-01-11T09:28:12.665Z,22.6
2024-01-11T09:29:13.305Z,22.6
2024-01-11T09:30:13.389Z,22.6
2024-01-11T09:31:13.387Z,22.6
2024-01-11T09:32:13.402Z,22.6
2024-01-11T09:33:13.444Z,22.6
2024-01-11T09:34:13.970Z,22.6
2024-01-11T09:35:15.993Z,22.6
2024-01-11T09:36:14.874Z,22.6
2024-01-11T09:37:15.358Z,22.6
2024-01-11T09:38:15.855Z,22.6
2024-01-11T09:39:16.376Z,22.6
2024-01-11T09:40:16.846Z,22.6
2024-01-11T09:41:17.387Z,22.6
2024-01-11T09:42:17.857Z,22.6
2024-01-11T09:43:18.360Z,22.6
2024-01-11T09:44:18.905Z,22.6
2024-01-11T09:45:19.408Z,22.6
2024-01-11T09:46:19.873Z,22.6
2024-01-11T09:47:20.412Z,22.6
2024-01-11T09:48:20.872Z,22.6
2024-01-11T09:49:21.309Z,22.6
2024-01-11T09:50:22.585Z,22.6
2024-01-11T09:51:21.963Z,22.6
2024-01-11T09:52:22.440Z,22.6
2024-01-11T09:53:22.935Z,22.6
2024-01-11T09:54:23.392Z,22.6
2024-01-11T09:55:23.899Z,23
2024-01-11T09:56:23.898Z,23
2024-01-11T09:57:24.362Z,23
2024-01-11T09:58:24.845Z,23
2024-01-11T09:59:25.369Z,23
2024-01-11T10:00:25.874Z,23
2024-01-11T10:01:26.317Z,23
2024-01-11T10:02:26.821Z,23
2024-01-11T10:03:27.278Z,23
2024-01-11T10:04:27.766Z,23
2024-01-11T10:05:27.794Z,23
2024-01-11T10:06:28.317Z,23
2024-01-11T10:07:28.751Z,23
2024-01-11T10:08:29.209Z,23
2024-01-11T10:09:29.667Z,23
2024-01-11T10:10:30.150Z,23
2024-01-11T10:11:30.702Z,23
2024-01-11T10:12:31.126Z,23
2024-01-11T10:13:31.613Z,22.6
2024-01-11T10:14:32.114Z,23
2024-01-11T10:15:32.586Z,23
2024-01-11T10:16:33.076Z,23
2024-01-11T10:17:33.781Z,23
2024-01-11T10:18:33.711Z,23
2024-01-11T10:19:34.293Z,22.6
2024-01-11T10:20:34.818Z,22.6
2024-01-11T10:21:35.101Z,22.6
2024-01-11T10:22:35.038Z,22.6
2024-01-11T10:23:38.153Z,22.6
2024-01-11T10:24:35.604Z,22.6
2024-01-11T10:25:36.084Z,23
2024-01-11T10:26:36.621Z,23
2024-01-11T10:27:36.567Z,23
2024-01-11T10:28:37.066Z,23
2024-01-11T10:29:37.829Z,23
2024-01-11T10:30:37.618Z,23
2024-01-11T10:31:38.064Z,23
2024-01-11T10:32:38.590Z,23
2024-01-11T10:33:39.090Z,23
2024-01-11T10:34:39.534Z,23
2024-01-11T10:35:39.597Z,23
2024-01-11T10:36:40.024Z,23
2024-01-11T10:37:40.537Z,23
2024-01-11T10:38:41.160Z,23
2024-01-11T10:39:41.563Z,23
2024-01-11T10:40:42.140Z,23
2024-01-11T10:41:42.840Z,23
2024-01-11T10:42:43.124Z,23
2024-01-11T10:43:43.522Z,23
2024-01-11T10:44:44.104Z,23
2024-01-11T10:45:44.537Z,23
2024-01-11T10:46:45.042Z,23
2024-01-11T10:47:45.571Z,23
2024-01-11T10:48:46.107Z,23
2024-01-11T10:49:46.532Z,23
2024-01-11T10:50:47.206Z,23
2024-01-11T10:51:47.536Z,23
2024-01-11T10:52:48.016Z,23
2024-01-11T10:53:48.925Z,23
2024-01-11T10:54:49.002Z,23
2024-01-11T10:55:49.513Z,23
2024-01-11T10:56:50.046Z,23
2024-01-11T10:57:50.535Z,23
2024-01-11T10:58:50.976Z,23
2024-01-11T10:59:51.507Z,23
2024-01-11T11:00:52.042Z,23
2024-01-11T11:01:52.495Z,23
2024-01-11T11:02:53.127Z,23
2024-01-11T11:03:53.532Z,23
2024-01-11T11:04:54.016Z,23
2024-01-11T11:05:54.582Z,23
2024-01-11T11:06:55.015Z,23
2024-01-11T11:07:55.500Z,23
2024-01-11T11:08:56.004Z,23
2024-01-11T11:09:56.484Z,23
2024-01-11T11:10:56.992Z,23
2024-01-11T11:11:57.494Z,23
2024-01-11T11:12:58.001Z,23
2024-01-11T11:13:58.501Z,23
2024-01-11T11:14:59.008Z,23
2024-01-11T11:16:01.639Z,23.4
2024-01-11T11:16:59.587Z,23.4
2024-01-11T11:17:59.640Z,23.4
2024-01-11T11:18:59.625Z,23.4
2024-01-11T11:19:59.605Z,23.4
2024-01-11T11:20:59.658Z,23.4
2024-01-11T11:21:59.620Z,23
2024-01-11T11:23:00.114Z,23
2024-01-11T11:24:00.619Z,23
2024-01-11T11:25:00.621Z,23
2024-01-11T11:26:01.130Z,23
2024-01-11T11:27:01.122Z,23
2024-01-11T11:28:01.608Z,23.1
2024-01-11T11:29:02.125Z,23.4
2024-01-11T11:30:02.250Z,23.2
2024-01-11T11:31:02.134Z,23
2024-01-11T11:32:02.534Z,23.4
2024-01-11T11:33:03.034Z,23.4
2024-01-11T11:34:03.992Z,23.4
2024-01-11T11:35:04.015Z,23.4
2024-01-11T11:36:04.569Z,23.4
2024-01-11T11:37:04.522Z,23
2024-01-11T11:38:05.022Z,23.4
2024-01-11T11:39:05.459Z,23.4
2024-01-11T11:40:05.955Z,23
2024-01-11T11:41:06.472Z,23
2024-01-11T11:42:06.445Z,23
2024-01-11T11:43:06.915Z,23
2024-01-11T11:44:07.416Z,23
2024-01-11T11:45:07.853Z,23
2024-01-11T11:46:08.319Z,23
2024-01-11T11:47:08.807Z,23
2024-01-11T11:48:09.295Z,23
2024-01-11T11:49:09.872Z,23
2024-01-11T11:50:09.877Z,23
2024-01-11T11:51:10.344Z,23
2024-01-11T11:52:10.308Z,23
2024-01-11T11:53:10.802Z,23.4
2024-01-11T11:54:11.270Z,23.4
2024-01-11T11:55:11.282Z,23.4
2024-01-11T11:56:11.300Z,23.4
2024-01-11T11:57:11.293Z,23.4
2024-01-11T11:58:11.787Z,23
2024-01-11T11:59:12.293Z,23
2024-01-11T12:00:12.283Z,23
2024-01-11T12:01:12.801Z,23.4
2024-01-11T12:02:13.385Z,23.4
2024-01-11T12:03:13.271Z,23.4
2024-01-11T12:04:13.318Z,23.4
2024-01-11T12:05:13.838Z,23.4
2024-01-11T12:06:14.370Z,23.4
2024-01-11T12:07:14.821Z,23.4
2024-01-11T12:08:15.249Z,23.4
2024-01-11T12:09:15.732Z,23.4
2024-01-11T12:10:16.230Z,23.4
2024-01-11T12:11:16.710Z,23.4
2024-01-11T12:12:17.220Z,23.4
2024-01-11T12:13:17.705Z,23.4
2024-01-11T12:14:18.198Z,23.4
2024-01-11T12:15:18.665Z,23.4
2024-01-11T12:16:19.141Z,23.4
2024-01-11T12:17:19.715Z,23.4
2024-01-11T12:18:19.858Z,23.4
2024-01-11T12:19:19.735Z,23.4
2024-01-11T12:20:19.741Z,23.4
2024-01-11T12:21:20.191Z,23.4
2024-01-11T12:22:20.172Z,23.4
2024-01-11T12:23:20.725Z,23.8
2024-01-11T12:24:21.163Z,23.8
2024-01-11T12:25:21.164Z,23.8
2024-01-11T12:26:21.680Z,23.8
2024-01-11T12:27:21.866Z,23.8
2024-01-11T12:28:21.709Z,23.7
2024-01-11T12:29:21.703Z,23.7
2024-01-11T12:30:22.215Z,23.8
2024-01-11T12:31:22.234Z,23.8
2024-01-11T12:32:22.242Z,23.8
2024-01-11T12:33:22.831Z,23.8
2024-01-11T12:34:23.310Z,23.4
2024-01-11T12:35:23.787Z,23.4
2024-01-11T12:36:24.268Z,23.4
2024-01-11T12:37:24.761Z,23.7
2024-01-11T12:38:25.243Z,23.8
2024-01-11T12:39:25.765Z,23.8
2024-01-11T12:40:26.293Z,23.8
2024-01-11T12:41:26.357Z,23.8
2024-01-11T12:42:26.283Z,23.8
2024-01-11T12:43:26.291Z,23.8
2024-01-11T12:44:26.309Z,23.8
2024-01-11T12:45:26.327Z,23.8
2024-01-11T12:46:26.810Z,23.8
2024-01-11T12:47:27.432Z,23.8
2024-01-11T12:48:27.445Z,23.8
2024-01-11T12:49:27.881Z,23.8
2024-01-11T12:50:28.447Z,23.8
2024-01-11T12:51:28.960Z,23.8
2024-01-11T12:52:28.960Z,23.8
2024-01-11T12:53:28.862Z,23.8
2024-01-11T12:54:28.832Z,23.8
2024-01-11T12:55:29.343Z,23.8
2024-01-11T12:56:29.903Z,23.8
2024-01-11T12:57:29.891Z,23.8
2024-01-11T12:58:30.338Z,23.8
2024-01-11T12:59:30.860Z,23.8
2024-01-11T13:00:31.324Z,23.8
2024-01-11T13:01:31.941Z,23.8
2024-01-11T13:02:31.962Z,23.8
2024-01-11T13:03:32.434Z,23.8
2024-01-11T13:04:32.398Z,23.8
2024-01-11T13:05:32.410Z,24.1
2024-01-11T13:06:32.957Z,24.1
2024-01-11T13:07:32.869Z,24.1
2024-01-11T13:08:33.460Z,24.1
2024-01-11T13:09:33.361Z,24.1
2024-01-11T13:10:33.862Z,24.1
2024-01-11T13:11:34.351Z,24.1
2024-01-11T13:12:34.802Z,23.8
2024-01-11T13:13:35.293Z,23.8
2024-01-11T13:14:35.880Z,23.8
2024-01-11T13:15:35.881Z,23.8
2024-01-11T13:16:35.883Z,23.8
2024-01-11T13:17:36.473Z,23.8
2024-01-11T13:18:36.447Z,23.8
2024-01-11T13:19:37.005Z,23.8
2024-01-11T13:20:37.458Z,23.8
2024-01-11T13:21:37.393Z,23.8
2024-01-11T13:22:37.847Z,23.9
2024-01-11T13:23:38.402Z,24.1
2024-01-11T13:24:38.876Z,23.8
2024-01-11T13:25:38.857Z,23.8
2024-01-11T13:26:39.419Z,24.1
2024-01-11T13:27:39.878Z,24.1
2024-01-11T13:28:40.368Z,24.1
2024-01-11T13:29:40.909Z,23.8
2024-01-11T13:30:41.401Z,23.8
2024-01-11T13:31:41.934Z,23.8
2024-01-11T13:32:42.431Z,23.8
2024-01-11T13:33:42.921Z,23.8
2024-01-11T13:34:43.456Z,23.8
2024-01-11T13:35:43.977Z,23.8
2024-01-11T13:36:44.391Z,23.8
2024-01-11T13:37:44.869Z,24.1
2024-01-11T13:38:45.386Z,24.1
2024-01-11T13:39:45.869Z,24.1
2024-01-11T13:40:46.368Z,24.1
2024-01-11T13:41:46.947Z,23.8
2024-01-11T13:42:46.860Z,24.1
2024-01-11T13:43:47.358Z,24.1
2024-01-11T13:44:47.482Z,24.1
2024-01-11T13:45:47.492Z,24.1
2024-01-11T13:46:47.936Z,24.1
2024-01-11T13:47:48.529Z,24.1
2024-01-11T13:48:48.517Z,24.1
2024-01-11T13:49:48.460Z,24.1
2024-01-11T13:50:49.149Z,24.1
2024-01-11T13:51:53.528Z,24.1
2024-01-11T13:52:48.932Z,24.1
2024-01-11T13:53:48.973Z,24.1
2024-01-11T13:54:49.447Z,24.1
2024-01-11T13:55:49.492Z,24.1
2024-01-11T13:56:49.476Z,24.1
2024-01-11T13:57:49.963Z,24.1
2024-01-11T13:58:50.491Z,24.1
2024-01-11T13:59:51.121Z,24.1
2024-01-11T14:00:51.102Z,24.1
2024-01-11T14:01:51.060Z,24.1
2024-01-11T14:02:51.756Z,24.1
2024-01-11T14:03:52.080Z,23.8
2024-01-11T14:04:52.050Z,23.8
2024-01-11T14:05:52.195Z,23.8
2024-01-11T14:06:52.662Z,23.4
2024-01-11T14:07:52.639Z,23.4
2024-01-11T14:08:52.663Z,23.4
2024-01-11T14:09:53.128Z,23.4
2024-01-11T14:10:53.622Z,23.4
2024-01-11T14:11:53.698Z,23.4
2024-01-11T14:12:53.699Z,23.4
2024-01-11T14:13:53.706Z,23.4
2024-01-11T14:14:53.783Z,23.4
2024-01-11T14:15:54.243Z,23
2024-01-11T14:16:57.254Z,23
2024-01-11T14:17:55.105Z,23
2024-01-11T14:18:55.298Z,23
2024-01-11T14:19:55.107Z,23
2024-01-11T14:20:55.108Z,23
2024-01-11T14:21:55.613Z,23
2024-01-11T14:22:55.571Z,23
2024-01-11T14:23:56.066Z,23
2024-01-11T14:24:56.618Z,23
2024-01-11T14:25:56.667Z,23
2024-01-11T14:26:56.670Z,23
2024-01-11T14:27:57.163Z,23
2024-01-11T14:28:57.188Z,23
2024-01-11T14:29:57.312Z,23
2024-01-11T14:30:57.438Z,23
2024-01-11T14:31:57.803Z,23
2024-01-11T14:32:58.413Z,23
2024-01-11T14:33:58.871Z,23
2024-01-11T14:34:59.354Z,23
2024-01-11T14:35:59.875Z,23
2024-01-11T14:37:00.397Z,23
2024-01-11T14:38:00.880Z,23
2024-01-11T14:39:03.785Z,23
2024-01-11T14:40:01.690Z,23
2024-01-11T14:41:01.640Z,23
2024-01-11T14:42:01.625Z,23
2024-01-11T14:43:01.660Z,23
2024-01-11T14:44:01.649Z,23
2024-01-11T14:45:02.290Z,23
2024-01-11T14:46:02.682Z,23
2024-01-11T14:47:02.680Z,23
2024-01-11T14:48:03.323Z,23
2024-01-11T14:49:03.251Z,23
2024-01-11T14:50:03.247Z,23
2024-01-11T14:51:03.744Z,23
2024-01-11T14:52:03.745Z,23
2024-01-11T14:53:03.727Z,23
2024-01-11T14:54:04.227Z,23
2024-01-11T14:55:04.715Z,23
2024-01-11T14:56:05.411Z,23.4
2024-01-11T14:57:05.436Z,23
2024-01-11T14:58:05.533Z,23
2024-01-11T14:59:06.131Z,23
2024-01-11T15:00:08.201Z,23
2024-01-11T15:01:05.979Z,23.4
2024-01-11T15:02:06.007Z,23.4
2024-01-11T15:03:06.279Z,23.4
2024-01-11T15:04:06.178Z,23.4
2024-01-11T15:05:06.515Z,23.4
2024-01-11T15:06:06.571Z,23.4
2024-01-11T15:07:07.004Z,23.4
2024-01-11T15:08:07.488Z,23.4
2024-01-11T15:09:07.936Z,23.4
2024-01-11T15:10:08.458Z,23.4
2024-01-11T15:11:09.010Z,23.4
2024-01-11T15:12:09.457Z,23.4
2024-01-11T15:13:09.955Z,23.4
2024-01-11T15:14:10.480Z,23.4
2024-01-11T15:15:10.968Z,23.4
2024-01-11T15:16:11.469Z,23.4
2024-01-11T15:17:12.032Z,23.4
2024-01-11T15:18:12.657Z,23.4
2024-01-11T15:19:13.060Z,23.4
2024-01-11T15:20:13.579Z,23.4
2024-01-11T15:21:13.553Z,23.4
2024-01-11T15:22:13.661Z,23.4
2024-01-11T15:23:13.602Z,23.4
2024-01-11T15:24:13.580Z,23.4
2024-01-11T15:25:13.632Z,23.4
2024-01-11T15:26:14.179Z,23.4
2024-01-11T15:27:14.436Z,23.4
2024-01-11T15:28:14.617Z,23.4
2024-01-11T15:29:14.712Z,23.4
2024-01-11T15:30:14.731Z,23.4
2024-01-11T15:31:15.134Z,23.4
2024-01-11T15:32:15.624Z,23.4
2024-01-11T15:33:16.225Z,23.4
2024-01-11T15:34:16.641Z,23
2024-01-11T15:35:16.310Z,23
2024-01-11T15:36:16.264Z,23
2024-01-11T15:37:16.794Z,23
2024-01-11T15:38:16.805Z,23
2024-01-11T15:39:21.024Z,23
2024-01-11T15:40:17.764Z,23
2024-01-11T15:41:18.292Z,23
2024-01-11T15:42:18.265Z,23
2024-01-11T15:43:18.750Z,23
2024-01-11T15:44:19.357Z,23
2024-01-11T15:45:19.396Z,23
2024-01-11T15:46:19.392Z,23
2024-01-11T15:47:19.960Z,23
2024-01-11T15:48:20.027Z,23
2024-01-11T15:49:20.063Z,23
2024-01-11T15:50:20.076Z,23.4
2024-01-11T15:51:20.070Z,23.4
2024-01-11T15:52:20.567Z,23.4
2024-01-11T15:53:21.068Z,23.4
2024-01-11T15:54:21.939Z,23.4
2024-01-11T15:55:21.583Z,23.4
2024-01-11T15:56:22.099Z,23.4
2024-01-11T15:57:22.069Z,23.4
2024-01-11T15:58:22.574Z,23.4
2024-01-11T15:59:23.889Z,23.4
2024-01-11T16:00:23.529Z,23.4
2024-01-11T16:01:24.074Z,23.4
2024-01-11T16:02:24.053Z,23.4
2024-01-11T16:03:24.234Z,23.4
2024-01-11T16:04:24.552Z,23.4
2024-01-11T16:05:27.867Z,23.4
2024-01-11T16:06:25.355Z,23.4
2024-01-11T16:07:25.834Z,23.4
2024-01-11T16:08:26.294Z,23.4
2024-01-11T16:09:26.771Z,23.4
2024-01-11T16:10:27.291Z,23.4
2024-01-11T16:11:27.326Z,23.4
2024-01-11T16:12:27.298Z,23.4
2024-01-11T16:13:27.764Z,23.4
2024-01-11T16:14:28.304Z,23.4
2024-01-11T16:15:28.238Z,23.4
2024-01-11T16:16:28.722Z,23.4
2024-01-11T16:17:30.507Z,23.4
2024-01-11T16:18:29.779Z,23.4
2024-01-11T16:19:30.201Z,23.4
2024-01-11T16:20:30.761Z,23.4
2024-01-11T16:21:30.734Z,23.4
2024-01-11T16:22:30.765Z,23.4
2024-01-11T16:23:31.266Z,23.4
2024-01-11T16:24:31.753Z,23
2024-01-11T16:25:32.239Z,23
2024-01-11T16:26:32.272Z,23.4
2024-01-11T16:27:32.772Z,23.2
2024-01-11T16:28:32.747Z,23
2024-01-11T16:29:33.290Z,23
2024-01-11T16:30:33.743Z,23
2024-01-11T16:31:34.218Z,23
2024-01-11T16:32:34.498Z,23
2024-01-11T16:33:34.336Z,23
2024-01-11T16:34:34.810Z,23
2024-01-11T16:35:41.186Z,23
2024-01-11T16:36:35.318Z,23
2024-01-11T16:37:35.818Z,23.4
2024-01-11T16:38:35.841Z,23.4
2024-01-11T16:39:35.787Z,23.4
2024-01-11T16:40:36.268Z,23.3
2024-01-11T16:41:36.795Z,23
2024-01-11T16:42:37.328Z,23
2024-01-11T16:43:37.777Z,23
2024-01-11T16:44:37.830Z,23
2024-01-11T16:45:38.302Z,23
2024-01-11T16:46:38.782Z,23
2024-01-11T16:47:39.332Z,23
2024-01-11T16:48:39.826Z,23
2024-01-11T16:49:40.316Z,23
2024-01-11T16:50:40.813Z,23
2024-01-11T16:51:41.236Z,23
2024-01-11T16:52:41.745Z,23
2024-01-11T16:53:42.214Z,23
2024-01-11T16:54:42.697Z,23
2024-01-11T16:55:43.186Z,23
2024-01-11T16:56:43.725Z,23
2024-01-11T16:57:44.159Z,23
2024-01-11T16:58:44.727Z,23
2024-01-11T16:59:45.185Z,23
2024-01-11T17:00:45.715Z,23
2024-01-11T17:01:46.107Z,23
2024-01-11T17:02:46.678Z,23
2024-01-11T17:03:46.659Z,23
2024-01-11T17:04:46.643Z,23
2024-01-11T17:05:47.211Z,23
2024-01-11T17:06:47.617Z,23
2024-01-11T17:07:47.651Z,23
2024-01-11T17:08:47.704Z,23
2024-01-11T17:09:48.068Z,23
2024-01-11T17:10:48.548Z,23
2024-01-11T17:11:49.204Z,23
2024-01-11T17:12:49.548Z,23
2024-01-11T17:13:49.537Z,23
2024-01-11T17:14:49.613Z,23
2024-01-11T17:15:50.018Z,23
2024-01-11T17:16:50.468Z,23
2024-01-11T17:17:51.016Z,23
2024-01-11T17:18:51.163Z,23
2024-01-11T17:19:51.480Z,23
2024-01-11T17:20:52.030Z,23
2024-01-11T17:21:52.433Z,23
2024-01-11T17:22:53.759Z,23
2024-01-11T17:23:52.987Z,23
2024-01-11T17:24:52.955Z,23
2024-01-11T17:25:53.452Z,23
2024-01-11T17:26:53.962Z,23
2024-01-11T17:27:53.945Z,23
2024-01-11T17:28:54.483Z,23
2024-01-11T17:29:55.044Z,23
2024-01-11T17:30:55.485Z,23
2024-01-11T17:31:55.926Z,23
2024-01-11T17:32:56.554Z,23
2024-01-11T17:33:56.973Z,23.4
2024-01-11T17:34:57.437Z,23
2024-01-11T17:35:57.936Z,23
2024-01-11T17:36:58.345Z,23
2024-01-11T17:37:58.865Z,23
2024-01-11T17:39:01.145Z,23
2024-01-11T17:39:59.828Z,23
2024-01-11T17:41:00.329Z,23
2024-01-11T17:42:01.023Z,23.4
2024-01-11T17:43:01.269Z,23.4
2024-01-11T17:44:01.730Z,23.4
2024-01-11T17:45:02.414Z,23.4
2024-01-11T17:46:02.745Z,23.4
2024-01-11T17:47:02.724Z,23.4
2024-01-11T17:48:02.800Z,23.4
2024-01-11T17:49:03.325Z,23.4
2024-01-11T17:50:03.642Z,23.4
2024-01-11T17:51:04.179Z,23.4
2024-01-11T17:52:04.639Z,23.4
2024-01-11T17:53:04.632Z,23.7
2024-01-11T17:54:05.084Z,23.8
2024-01-11T17:55:05.560Z,23.8
2024-01-11T17:56:06.080Z,23.8
2024-01-11T17:57:06.122Z,23.8
2024-01-11T17:58:06.139Z,23.4
2024-01-11T17:59:06.152Z,23.4
2024-01-11T18:00:06.618Z,23.4
2024-01-11T18:01:07.127Z,23.4
2024-01-11T18:02:07.195Z,23.4
2024-01-11T18:03:07.149Z,23.4
2024-01-11T18:04:07.678Z,23.4
2024-01-11T18:05:07.682Z,23.4
2024-01-11T18:06:08.223Z,23.4
2024-01-11T18:07:08.205Z,23.4
2024-01-11T18:08:08.777Z,23.4
2024-01-11T18:09:09.201Z,23.4
2024-01-11T18:10:09.678Z,23.4
2024-01-11T18:11:10.194Z,23.4
2024-01-11T18:12:10.686Z,23.4
2024-01-11T18:13:11.208Z,23.4
2024-01-11T18:14:11.223Z,23.4
2024-01-11T18:15:11.699Z,23.4
2024-01-11T18:16:11.680Z,23.4
2024-01-11T18:17:12.226Z,23.4
2024-01-11T18:18:12.807Z,23.4
2024-01-11T18:19:12.725Z,23.4
2024-01-11T18:20:13.198Z,23.4
2024-01-11T18:21:13.193Z,23.4
2024-01-11T18:22:13.674Z,23.4
2024-01-11T18:23:14.240Z,23.4
2024-01-11T18:24:14.209Z,23.4
2024-01-11T18:25:14.720Z,23.4
2024-01-11T18:26:14.708Z,23.4
2024-01-11T18:27:15.183Z,23.4
2024-01-11T18:28:15.805Z,23.4
2024-01-11T18:29:15.992Z,23.4
2024-01-11T18:30:18.362Z,23.4
2024-01-11T18:31:16.401Z,23.4
2024-01-11T18:32:18.836Z,23.4
2024-01-11T18:33:16.817Z,23.4
2024-01-11T18:34:16.934Z,23.4
2024-01-11T18:35:16.864Z,23.4
2024-01-11T18:36:19.405Z,23.4
2024-01-11T18:37:19.773Z,23.4
2024-01-11T18:38:17.320Z,23.4
2024-01-11T18:39:20.255Z,23.4
2024-01-11T18:40:17.581Z,23.4
2024-01-11T18:41:17.587Z,23.4
2024-01-11T18:42:18.067Z,23.4
2024-01-11T18:43:18.553Z,23.4
2024-01-11T18:44:19.061Z,23.4
2024-01-11T18:45:19.547Z,23.4
2024-01-11T18:46:20.049Z,23.4
2024-01-11T18:47:20.615Z,23.4
2024-01-11T18:48:21.319Z,23
2024-01-11T18:49:21.616Z,23
2024-01-11T18:50:22.076Z,23
2024-01-11T18:51:22.052Z,23
2024-01-11T18:52:22.539Z,23
2024-01-11T18:53:23.077Z,23
2024-01-11T18:54:23.063Z,23
2024-01-11T18:55:23.076Z,23
2024-01-11T18:56:23.076Z,23
2024-01-11T18:57:23.085Z,23
2024-01-11T18:58:23.590Z,23
2024-01-11T18:59:24.118Z,23
2024-01-11T19:00:24.136Z,23
2024-01-11T19:01:24.657Z,23
2024-01-11T19:02:24.609Z,23
2024-01-11T19:03:25.366Z,23
2024-01-11T19:04:25.614Z,23
2024-01-11T19:05:26.266Z,23
2024-01-11T19:06:26.612Z,23
2024-01-11T19:07:27.060Z,23
2024-01-11T19:08:27.579Z,23
2024-01-11T19:09:28.055Z,23
2024-01-11T19:10:28.528Z,23
2024-01-11T19:11:29.054Z,23
2024-01-11T19:12:29.519Z,23
2024-01-11T19:13:29.520Z,23
2024-01-11T19:14:30.053Z,23
2024-01-11T19:15:30.503Z,23
2024-01-11T19:16:30.516Z,23
2024-01-11T19:17:30.614Z,23
2024-01-11T19:18:31.379Z,23
2024-01-11T19:19:31.563Z,23
2024-01-11T19:20:32.000Z,23
2024-01-11T19:21:32.500Z,23
2024-01-11T19:22:32.970Z,23
2024-01-11T19:23:35.062Z,23
2024-01-11T19:24:33.935Z,23
2024-01-11T19:25:34.418Z,23
2024-01-11T19:26:34.935Z,23
2024-01-11T19:27:35.404Z,23
2024-01-11T19:28:35.911Z,23
2024-01-11T19:29:36.421Z,23
2024-01-11T19:30:36.889Z,23
2024-01-11T19:31:37.315Z,23.4
2024-01-11T19:32:37.969Z,23.4
2024-01-11T19:33:38.362Z,23.4
2024-01-11T19:34:38.361Z,23.4
2024-01-11T19:35:38.881Z,23.4
2024-01-11T19:36:39.284Z,23.4
2024-01-11T19:37:39.753Z,23.4
2024-01-11T19:38:40.421Z,23.4
2024-01-11T19:39:40.262Z,23.4
2024-01-11T19:40:40.761Z,23.4
2024-01-11T19:41:41.278Z,23.4
2024-01-11T19:42:41.720Z,23.4
2024-01-11T19:43:42.232Z,23.4
2024-01-11T19:44:42.756Z,23.4
2024-01-11T19:45:42.718Z,23.4
2024-01-11T19:46:42.731Z,23.4
2024-01-11T19:47:42.859Z,23.4
2024-01-11T19:48:43.355Z,23.4
2024-01-11T19:49:43.745Z,23.4
2024-01-11T19:50:44.323Z,23.4
2024-01-11T19:51:44.252Z,23.4
2024-01-11T19:52:44.296Z,23.4
2024-01-11T19:53:44.795Z,23.4
2024-01-11T19:54:45.214Z,23.4
2024-01-11T19:55:45.810Z,23.4
2024-01-11T19:56:45.810Z,23.4
2024-01-11T19:57:45.768Z,23.4
2024-01-11T19:58:46.282Z,23.4
2024-01-11T19:59:46.308Z,23.4
2024-01-11T20:00:46.794Z,23.4
2024-01-11T20:01:47.316Z,23.4
2024-01-11T20:02:47.367Z,23.4
2024-01-11T20:03:47.328Z,23.4
2024-01-11T20:04:47.783Z,23.4
2024-01-11T20:05:48.350Z,23.4
2024-01-11T20:06:48.850Z,23.4
2024-01-11T20:07:48.811Z,23.4
2024-01-11T20:08:49.418Z,23.4
2024-01-11T20:09:49.769Z,23.4
2024-01-11T20:10:49.766Z,23.4
2024-01-11T20:11:50.327Z,23.4
2024-01-11T20:12:50.264Z,23.4
2024-01-11T20:13:50.748Z,23.4
2024-01-11T20:14:51.281Z,23.4